Wetterdaten: Woche 20.04.09 - 26.04.09 (KW17)
Datum Zeit Temp. A. Feuchte A. Luftdruck Regen Wind Richtung Taupunkt Windchill Windben
20.04.2009 00:00 13,2 C 69 % 1021,3 hPa 0,0 l/m 0,0 km/h N 7,6 C 13,2 C 0,8 km/h
20.04.2009 01:00 13,0 C 72 % 1021,4 hPa 0,0 l/m 0,0 km/h N 7,9 C 13,0 C 0,0 km/h
20.04.2009 02:00 12,4 C 76 % 1021,4 hPa 0,0 l/m 0,0 km/h N 8,3 C 12,4 C 0,8 km/h
20.04.2009 03:00 11,8 C 84 % 1021,3 hPa 0,0 l/m 0,1 km/h N 9,2 C 11,8 C 2,0 km/h
20.04.2009 04:00 11,4 C 86 % 1021,1 hPa 0,0 l/m 0,2 km/h N 9,1 C 11,4 C 2,0 km/h
20.04.2009 05:00 11,1 C 89 % 1021,1 hPa 0,9 l/m 0,0 km/h N 9,4 C 11,1 C 0,0 km/h
20.04.2009 06:00 11,0 C 91 % 1021,6 hPa 0,0 l/m 0,0 km/h N 9,7 C 11,0 C 0,0 km/h
20.04.2009 07:00 11,4 C 92 % 1022,0 hPa 0,0 l/m 0,0 km/h N 10,2 C 11,4 C 0,0 km/h
20.04.2009 08:00 12,8 C 82 % 1022,1 hPa 0,0 l/m 0,1 km/h O-NO 9,8 C 12,8 C 1,2 km/h
20.04.2009 09:00 14,3 C 72 % 1022,0 hPa 0,0 l/m 0,7 km/h O 9,2 C 14,3 C 4,0 km/h
20.04.2009 10:00 15,9 C 67 % 1021,9 hPa 0,0 l/m 1,5 km/h O 9,8 C 15,9 C 6,4 km/h
20.04.2009 11:00 17,0 C 65 % 1021,9 hPa 0,0 l/m 3,7 km/h O 10,3 C 17,0 C 8,9 km/h
20.04.2009 12:00 18,4 C 56 % 1021,5 hPa 0,0 l/m 2,8 km/h NO 9,4 C 18,4 C 8,9 km/h
20.04.2009 13:00 19,2 C 55 % 1021,0 hPa 0,0 l/m 2,9 km/h O 9,9 C 19,2 C 8,4 km/h
20.04.2009 14:00 19,7 C 53 % 1020,7 hPa 0,0 l/m 4,0 km/h O 9,7 C 19,7 C 11,7 km/h
20.04.2009 15:00 20,0 C 49 % 1020,1 hPa 0,0 l/m 2,7 km/h O 8,9 C 20,0 C 10,2 km/h
20.04.2009 16:00 20,8 C 44 % 1019,3 hPa 0,0 l/m 2,4 km/h O 7,9 C 20,8 C 11,3 km/h
20.04.2009 17:00 20,8 C 43 % 1018,9 hPa 0,0 l/m 2,4 km/h O 7,7 C 20,8 C 8,0 km/h
20.04.2009 18:00 20,0 C 46 % 1018,6 hPa 0,0 l/m 3,2 km/h O 7,9 C 20,0 C 8,9 km/h
20.04.2009 19:00 18,7 C 52 % 1018,6 hPa 0,0 l/m 0,0 km/h N 8,4 C 18,7 C 2,4 km/h
20.04.2009 20:00 15,6 C 63 % 1018,9 hPa 0,0 l/m 0,0 km/h N 8,4 C 15,6 C 0,8 km/h
20.04.2009 21:00 13,5 C 71 % 1019,4 hPa 0,0 l/m 0,0 km/h N 8,3 C 13,5 C 0,8 km/h
20.04.2009 22:00 13,3 C 70 % 1019,3 hPa 0,0 l/m 0,0 km/h N 7,8 C 13,3 C 3,2 km/h
20.04.2009 23:00 12,1 C 75 % 1019,4 hPa 0,0 l/m 0,0 km/h N 7,8 C 12,1 C 0,0 km/h
21.04.2009 00:00 12,5 C 69 % 1019,3 hPa 0,0 l/m 0,0 km/h N 6,9 C 12,5 C 1,6 km/h
21.04.2009 01:00 12,3 C 65 % 1019,5 hPa 0,0 l/m 0,0 km/h N 5,8 C 12,3 C 1,6 km/h
21.04.2009 02:00 11,3 C 67 % 1019,3 hPa 0,0 l/m 0,0 km/h N 5,2 C 11,3 C 0,0 km/h
21.04.2009 03:00 10,7 C 66 % 1019,3 hPa 0,0 l/m 0,0 km/h N 4,6 C 10,7 C 1,6 km/h
21.04.2009 04:00 8,6 C 75 % 1019,5 hPa 0,0 l/m 0,0 km/h N 4,4 C 8,6 C 1,6 km/h
21.04.2009 05:00 8,3 C 76 % 1019,4 hPa 0,0 l/m 0,0 km/h N 4,2 C 8,3 C 1,6 km/h
21.04.2009 06:00 7,5 C 79 % 1019,6 hPa 0,0 l/m 0,0 km/h N 4,1 C 7,5 C 1,6 km/h
21.04.2009 07:00 10,5 C 65 % 1019,8 hPa 0,0 l/m 0,0 km/h NW 4,1 C 10,5 C 4,8 km/h
21.04.2009 08:00 12,9 C 53 % 1020,2 hPa 0,0 l/m 3,2 km/h NW 3,6 C 12,9 C 9,6 km/h
21.04.2009 09:00 14,3 C 48 % 1020,1 hPa 0,0 l/m 4,8 km/h NO 3,3 C 14,3 C 10,5 km/h
21.04.2009 10:00 16,0 C 43 % 1020,1 hPa 0,0 l/m 4,8 km/h NO 3,3 C 16,0 C 13,7 km/h
21.04.2009 11:00 18,0 C 38 % 1019,7 hPa 0,0 l/m 4,8 km/h N-NO 3,3 C 18,0 C 12,9 km/h
21.04.2009 12:00 19,1 C 33 % 1019,3 hPa 0,0 l/m 5,6 km/h NO 2,2 C 19,1 C 18,5 km/h
21.04.2009 13:00 19,8 C 32 % 1018,8 hPa 0,0 l/m 6,4 km/h NO 2,6 C 19,8 C 16,9 km/h
21.04.2009 14:00 20,0 C 31 % 1018,7 hPa 0,0 l/m 6,4 km/h NO 2,1 C 20,0 C 16,1 km/h
21.04.2009 15:00 19,9 C 29 % 1018,1 hPa 0,0 l/m 6,4 km/h NO 1,1 C 19,9 C 16,9 km/h
21.04.2009 16:00 19,8 C 27 % 1017,6 hPa 0,0 l/m 5,6 km/h NO 0,3 C 19,9 C 15,3 km/h
21.04.2009 17:00 20,0 C 26 % 1017,3 hPa 0,0 l/m 5,6 km/h NO -0,4 C 20,0 C 16,9 km/h
21.04.2009 18:00 19,0 C 28 % 1017,2 hPa 0,0 l/m 6,4 km/h NO -0,1 C 19,1 C 15,3 km/h
21.04.2009 19:00 17,8 C 31 % 1017,4 hPa 0,0 l/m 4,1 km/h N-NW 0,2 C 17,8 C 10,9 km/h
21.04.2009 20:00 15,0 C 39 % 1018,0 hPa 0,0 l/m 0,3 km/h N 0,9 C 15,0 C 2,0 km/h
21.04.2009 21:00 14,1 C 42 % 1018,4 hPa 0,0 l/m 1,2 km/h N-NW 1,3 C 14,1 C 3,2 km/h
21.04.2009 22:00 13,5 C 43 % 1018,4 hPa 0,0 l/m 2,5 km/h NW 1,2 C 13,5 C 5,6 km/h
21.04.2009 23:00 13,0 C 44 % 1018,2 hPa 0,0 l/m 2,0 km/h NW 0,9 C 13,0 C 5,2 km/h
22.04.2009 00:00 12,6 C 45 % 1018,3 hPa 0,0 l/m 1,4 km/h NW 1,0 C 12,6 C 4,8 km/h
22.04.2009 01:00 11,8 C 48 % 1018,3 hPa 0,0 l/m 0,6 km/h N 1,1 C 11,8 C 4,0 km/h
22.04.2009 02:00 11,3 C 49 % 1018,4 hPa 0,0 l/m 0,2 km/h N 0,9 C 11,3 C 2,8 km/h
22.04.2009 03:00 10,6 C 51 % 1018,4 hPa 0,0 l/m 0,3 km/h N 0,8 C 10,6 C 4,4 km/h
22.04.2009 04:00 9,7 C 55 % 1018,2 hPa 0,0 l/m 0,1 km/h N 1,0 C 9,7 C 2,4 km/h
22.04.2009 05:00 8,4 C 61 % 1018,2 hPa 0,0 l/m 0,1 km/h N 1,3 C 8,4 C 2,4 km/h
22.04.2009 06:00 8,9 C 60 % 1018,2 hPa 0,0 l/m 0,9 km/h W-NW 1,6 C 8,9 C 3,6 km/h
22.04.2009 07:00 10,8 C 55 % 1018,4 hPa 0,0 l/m 2,5 km/h NW 2,1 C 10,8 C 7,2 km/h
22.04.2009 08:00 12,0 C 54 % 1018,5 hPa 0,0 l/m 4,1 km/h N-NW 3,0 C 12,0 C 10,9 km/h
22.04.2009 09:00 13,6 C 51 % 1018,2 hPa 0,0 l/m 4,4 km/h N-NO 3,6 C 13,6 C 13,3 km/h
22.04.2009 10:00 15,3 C 47 % 1017,8 hPa 0,0 l/m 5,4 km/h NW 4,0 C 15,3 C 14,1 km/h
22.04.2009 11:00 17,8 C 41 % 1017,3 hPa 0,0 l/m 5,0 km/h N-NO 4,3 C 17,8 C 16,9 km/h
22.04.2009 12:00 19,1 C 39 % 1016,6 hPa 0,0 l/m 5,0 km/h N-NW 4,6 C 19,1 C 13,3 km/h
22.04.2009 13:00 19,8 C 35 % 1015,7 hPa 0,0 l/m 5,3 km/h N 3,7 C 19,8 C 13,7 km/h
22.04.2009 14:00 20,6 C 33 % 1015,1 hPa 0,0 l/m 4,4 km/h N-NO 3,5 C 20,6 C 11,3 km/h
22.04.2009 15:00 21,3 C 32 % 1014,4 hPa 0,0 l/m 4,4 km/h N-NW 4,0 C 21,3 C 12,1 km/h
22.04.2009 16:00 21,4 C 33 % 1013,8 hPa 0,0 l/m 4,5 km/h N-NW 4,3 C 21,4 C 12,5 km/h
22.04.2009 17:00 20,8 C 34 % 1013,3 hPa 0,0 l/m 3,8 km/h N-NO 4,3 C 20,8 C 11,3 km/h
22.04.2009 18:00 20,0 C 33 % 1013,1 hPa 0,0 l/m 1,7 km/h W-SW 3,1 C 20,0 C 8,9 km/h
22.04.2009 19:00 17,8 C 47 % 1013,1 hPa 0,0 l/m 0,1 km/h N 6,3 C 17,8 C 2,0 km/h
22.04.2009 20:00 17,9 C 34 % 1013,2 hPa 0,0 l/m 0,6 km/h SW 1,7 C 17,9 C 4,8 km/h
22.04.2009 21:00 16,2 C 39 % 1013,1 hPa 0,0 l/m 3,6 km/h SW 2,0 C 16,2 C 8,9 km/h
22.04.2009 22:00 15,9 C 43 % 1012,9 hPa 0,0 l/m 3,7 km/h S-SW 3,4 C 15,9 C 11,3 km/h
22.04.2009 23:00 15,3 C 48 % 1013,2 hPa 0,0 l/m 0,9 km/h W-SW 4,2 C 15,3 C 4,8 km/h
23.04.2009 00:00 14,7 C 52 % 1013,3 hPa 0,0 l/m 1,1 km/h NW 4,9 C 14,7 C 4,0 km/h
23.04.2009 01:00 14,2 C 58 % 1014,0 hPa 0,0 l/m 8,0 km/h NW 6,0 C 13,2 C 18,5 km/h
23.04.2009 02:00 12,4 C 66 % 1014,6 hPa 0,0 l/m 7,3 km/h N-NW 6,2 C 11,6 C 17,7 km/h
23.04.2009 03:00 11,3 C 64 % 1015,3 hPa 0,0 l/m 7,7 km/h W-NW 4,7 C 10,4 C 20,5 km/h
23.04.2009 04:00 10,3 C 70 % 1016,1 hPa 0,0 l/m 5,1 km/h NW 5,0 C 10,2 C 13,3 km/h
23.04.2009 05:00 9,7 C 70 % 1016,3 hPa 0,0 l/m 5,1 km/h NW 4,4 C 9,7 C 13,7 km/h
23.04.2009 06:00 9,3 C 68 % 1016,9 hPa 0,0 l/m 3,6 km/h NW 3,8 C 9,3 C 9,3 km/h
23.04.2009 07:00 9,3 C 68 % 1017,5 hPa 0,0 l/m 4,5 km/h NW 3,6 C 9,3 C 12,1 km/h
23.04.2009 08:00 9,1 C 67 % 1018,1 hPa 0,0 l/m 4,2 km/h N-NW 3,2 C 9,1 C 11,7 km/h
23.04.2009 09:00 9,2 C 66 % 1018,7 hPa 0,0 l/m 4,5 km/h NW 3,1 C 9,2 C 10,9 km/h
23.04.2009 10:00 9,5 C 66 % 1019,1 hPa 0,0 l/m 4,9 km/h N-NW 3,4 C 9,5 C 13,3 km/h
23.04.2009 11:00 10,2 C 63 % 1019,6 hPa 0,0 l/m 4,4 km/h NW 3,4 C 10,2 C 11,3 km/h
23.04.2009 12:00 10,7 C 60 % 1019,7 hPa 0,0 l/m 3,7 km/h NW 3,3 C 10,7 C 11,7 km/h
23.04.2009 13:00 11,5 C 58 % 1019,7 hPa 0,0 l/m 4,1 km/h W-SW 3,5 C 11,5 C 13,7 km/h
23.04.2009 14:00 11,8 C 58 % 1019,4 hPa 0,0 l/m 4,4 km/h N-NO 3,7 C 11,8 C 11,3 km/h
23.04.2009 15:00 12,6 C 54 % 1019,3 hPa 0,0 l/m 4,4 km/h N-NO 3,5 C 12,6 C 10,5 km/h
23.04.2009 16:00 13,1 C 50 % 1019,0 hPa 0,0 l/m 4,4 km/h NW 2,9 C 13,1 C 10,1 km/h
23.04.2009 17:00 13,1 C 47 % 1019,3 hPa 0,0 l/m 5,2 km/h N-NO 2,1 C 13,1 C 12,5 km/h
23.04.2009 18:00 12,6 C 49 % 1019,6 hPa 0,0 l/m 3,6 km/h N-NW 2,1 C 12,6 C 8,0 km/h
23.04.2009 19:00 12,6 C 49 % 1019,7 hPa 0,0 l/m 3,6 km/h NW 2,0 C 12,6 C 10,1 km/h
23.04.2009 20:00 11,6 C 53 % 1020,3 hPa 0,0 l/m 0,6 km/h N 2,2 C 11,6 C 3,6 km/h
23.04.2009 21:00 10,4 C 59 % 1020,9 hPa 0,0 l/m 0,1 km/h N 2,7 C 10,4 C 1,2 km/h
23.04.2009 22:00 10,0 C 60 % 1021,2 hPa 0,0 l/m 0,1 km/h N 2,5 C 10,0 C 1,2 km/h
23.04.2009 23:00 9,8 C 64 % 1021,3 hPa 0,0 l/m 0,4 km/h N 3,2 C 9,8 C 2,0 km/h
24.04.2009 00:00 8,9 C 69 % 1021,5 hPa 0,0 l/m 0,3 km/h N 3,5 C 8,9 C 2,0 km/h
24.04.2009 01:00 8,7 C 72 % 1021,7 hPa 0,0 l/m 0,3 km/h N 3,8 C 8,7 C 2,0 km/h
24.04.2009 02:00 9,1 C 68 % 1021,7 hPa 0,0 l/m 1,6 km/h NW 3,6 C 9,1 C 4,8 km/h
24.04.2009 03:00 8,5 C 70 % 1021,7 hPa 0,0 l/m 0,2 km/h N 3,3 C 8,5 C 2,8 km/h
24.04.2009 04:00 7,7 C 74 % 1021,7 hPa 0,0 l/m 0,2 km/h N 3,4 C 7,7 C 2,4 km/h
24.04.2009 05:00 6,3 C 80 % 1021,8 hPa 0,0 l/m 0,1 km/h N 3,0 C 6,3 C 1,2 km/h
24.04.2009 06:00 6,4 C 81 % 1022,3 hPa 0,0 l/m 0,6 km/h SW 3,3 C 6,4 C 2,8 km/h
24.04.2009 07:00 7,9 C 77 % 1022,4 hPa 0,0 l/m 2,0 km/h N-NW 4,1 C 7,9 C 5,6 km/h
24.04.2009 08:00 9,4 C 75 % 1023,0 hPa 0,0 l/m 2,5 km/h N-NO 5,2 C 9,4 C 6,8 km/h
24.04.2009 09:00 10,4 C 75 % 1023,0 hPa 0,0 l/m 3,3 km/h NW 6,0 C 10,4 C 8,4 km/h
24.04.2009 10:00 12,3 C 70 % 1022,9 hPa 0,0 l/m 2,2 km/h N-NO 6,9 C 12,3 C 6,8 km/h
24.04.2009 11:00 14,0 C 66 % 1022,5 hPa 0,0 l/m 1,8 km/h NO 7,7 C 14,0 C 6,4 km/h
24.04.2009 12:00 15,7 C 60 % 1022,0 hPa 0,0 l/m 1,3 km/h O 7,8 C 15,7 C 6,0 km/h
24.04.2009 13:00 16,6 C 58 % 1021,4 hPa 0,0 l/m 2,7 km/h O 8,3 C 16,6 C 7,2 km/h
24.04.2009 14:00 17,3 C 56 % 1020,8 hPa 0,0 l/m 2,4 km/h O-NO 8,3 C 17,3 C 6,8 km/h
24.04.2009 15:00 18,0 C 52 % 1020,1 hPa 0,0 l/m 2,7 km/h O-NO 7,9 C 18,0 C 8,1 km/h
24.04.2009 16:00 18,4 C 51 % 1019,5 hPa 0,0 l/m 3,3 km/h O 7,9 C 18,4 C 7,6 km/h
24.04.2009 17:00 18,5 C 49 % 1019,0 hPa 0,0 l/m 1,5 km/h O 7,5 C 18,5 C 6,0 km/h
24.04.2009 18:00 18,4 C 47 % 1018,7 hPa 0,0 l/m 1,5 km/h S-SO 6,9 C 18,4 C 6,4 km/h
24.04.2009 19:00 16,5 C 55 % 1018,6 hPa 0,0 l/m 0,3 km/h N 7,4 C 16,5 C 3,2 km/h
24.04.2009 20:00 13,8 C 65 % 1018,7 hPa 0,0 l/m 0,1 km/h N 7,3 C 13,8 C 2,0 km/h
24.04.2009 21:00 12,4 C 69 % 1018,6 hPa 0,0 l/m 0,4 km/h W-SW 6,7 C 12,4 C 3,2 km/h
24.04.2009 22:00 11,6 C 71 % 1018,8 hPa 0,0 l/m 0,3 km/h N 6,4 C 11,6 C 4,0 km/h
24.04.2009 23:00 11,0 C 73 % 1018,8 hPa 0,0 l/m 0,0 km/h N 6,4 C 11,0 C 0,8 km/h
25.04.2009 00:00 9,8 C 76 % 1018,7 hPa 0,0 l/m 0,0 km/h N 5,7 C 9,8 C 0,4 km/h
25.04.2009 01:00 8,6 C 79 % 1018,5 hPa 0,0 l/m 0,0 km/h N 5,1 C 8,6 C 0,0 km/h
25.04.2009 02:00 8,3 C 78 % 1018,3 hPa 0,0 l/m 0,1 km/h N 4,7 C 8,3 C 1,2 km/h
25.04.2009 03:00 7,5 C 80 % 1018,2 hPa 0,0 l/m 0,1 km/h N 4,2 C 7,5 C 2,4 km/h
25.04.2009 04:00 6,5 C 83 % 1018,3 hPa 0,0 l/m 0,1 km/h N 3,8 C 6,5 C 2,4 km/h
25.04.2009 05:00 4,8 C 87 % 1018,7 hPa 0,0 l/m 0,1 km/h N 2,8 C 4,8 C 0,8 km/h
25.04.2009 06:00 4,7 C 89 % 1018,9 hPa 0,0 l/m 0,0 km/h N 3,0 C 4,7 C 0,8 km/h
25.04.2009 07:00 7,1 C 86 % 1019,1 hPa 0,0 l/m 0,0 km/h N 4,9 C 7,1 C 1,2 km/h
25.04.2009 08:00 10,4 C 75 % 1019,2 hPa 0,0 l/m 0,4 km/h N 6,0 C 10,4 C 3,2 km/h
25.04.2009 09:00 13,1 C 64 % 1019,1 hPa 0,0 l/m 0,7 km/h N 6,3 C 13,1 C 4,4 km/h
25.04.2009 10:00 16,5 C 51 % 1018,8 hPa 0,0 l/m 2,5 km/h O-NO 6,1 C 16,5 C 8,4 km/h
25.04.2009 11:00 18,2 C 45 % 1018,5 hPa 0,0 l/m 4,4 km/h NO 6,2 C 18,2 C 13,7 km/h
25.04.2009 12:00 19,6 C 43 % 1018,2 hPa 0,0 l/m 3,8 km/h O 6,6 C 19,6 C 14,5 km/h
25.04.2009 13:00 20,1 C 43 % 1017,8 hPa 0,0 l/m 4,2 km/h O-NO 7,0 C 20,1 C 14,1 km/h
25.04.2009 14:00 21,2 C 42 % 1017,6 hPa 0,0 l/m 3,6 km/h O 7,8 C 21,2 C 13,3 km/h
25.04.2009 15:00 22,1 C 38 % 1017,3 hPa 0,0 l/m 4,3 km/h O 7,0 C 22,1 C 18,9 km/h
25.04.2009 16:00 22,3 C 37 % 1017,2 hPa 0,0 l/m 4,0 km/h O 6,8 C 22,3 C 15,7 km/h
25.04.2009 17:00 21,6 C 39 % 1016,9 hPa 0,0 l/m 3,3 km/h O 6,9 C 21,6 C 14,1 km/h
25.04.2009 18:00 20,2 C 42 % 1016,9 hPa 0,0 l/m 2,3 km/h N-NO 6,8 C 20,2 C 9,7 km/h
25.04.2009 19:00 18,8 C 46 % 1017,1 hPa 0,0 l/m 1,5 km/h O 6,9 C 18,8 C 6,0 km/h
25.04.2009 20:00 17,2 C 50 % 1017,4 hPa 0,0 l/m 0,7 km/h N 6,5 C 17,2 C 4,8 km/h
25.04.2009 21:00 15,7 C 55 % 1017,9 hPa 0,0 l/m 0,2 km/h N 6,7 C 15,7 C 3,2 km/h
25.04.2009 22:00 13,4 C 64 % 1018,3 hPa 0,0 l/m 0,1 km/h N 6,6 C 13,4 C 2,4 km/h
25.04.2009 23:00 13,4 C 62 % 1018,5 hPa 0,0 l/m 0,3 km/h N 6,3 C 13,4 C 4,8 km/h
26.04.2009 00:00 10,3 C 73 % 1018,9 hPa 0,0 l/m 0,0 km/h N 5,5 C 10,3 C 0,4 km/h
26.04.2009 01:00 9,6 C 73 % 1018,9 hPa 0,0 l/m 0,2 km/h S-SW 4,9 C 9,6 C 2,4 km/h
26.04.2009 02:00 11,5 C 58 % 1018,6 hPa 0,0 l/m 1,2 km/h S 3,5 C 11,5 C 7,7 km/h
26.04.2009 03:00 9,9 C 63 % 1018,3 hPa 0,0 l/m 0,1 km/h N 3,2 C 9,9 C 2,0 km/h
26.04.2009 04:00 9,2 C 64 % 1018,4 hPa 0,0 l/m 0,2 km/h N 2,8 C 9,2 C 1,6 km/h
26.04.2009 05:00 6,6 C 77 % 1018,6 hPa 0,0 l/m 0,0 km/h N 2,8 C 6,6 C 0,0 km/h
26.04.2009 06:00 7,0 C 76 % 1018,8 hPa 0,0 l/m 0,0 km/h N 3,0 C 7,0 C 0,8 km/h
26.04.2009 07:00 10,9 C 62 % 1018,7 hPa 0,0 l/m 0,6 km/h O 3,8 C 10,9 C 3,6 km/h
26.04.2009 08:00 12,6 C 56 % 1018,6 hPa 0,0 l/m 1,1 km/h O-NO 4,1 C 12,6 C 6,4 km/h
26.04.2009 09:00 14,3 C 50 % 1018,2 hPa 0,0 l/m 2,9 km/h SO 3,9 C 14,3 C 10,9 km/h
26.04.2009 10:00 16,0 C 46 % 1017,7 hPa 0,0 l/m 3,6 km/h NO 4,4 C 16,0 C 15,3 km/h
26.04.2009 11:00 18,3 C 43 % 1017,6 hPa 0,0 l/m 4,5 km/h O 5,4 C 18,3 C 16,9 km/h
26.04.2009 12:00 20,2 C 39 % 1017,5 hPa 0,0 l/m 5,5 km/h O 5,9 C 20,1 C 24,5 km/h
26.04.2009 13:00 20,9 C 38 % 1016,8 hPa 0,0 l/m 5,9 km/h O 5,9 C 20,9 C 26,5 km/h
26.04.2009 14:00 20,4 C 39 % 1016,3 hPa 0,0 l/m 4,9 km/h O 6,1 C 20,4 C 20,5 km/h
26.04.2009 15:00 19,6 C 42 % 1015,8 hPa 0,0 l/m 4,3 km/h N-NO 6,4 C 19,6 C 18,5 km/h
26.04.2009 16:00 19,9 C 42 % 1015,5 hPa 0,0 l/m 4,7 km/h O-NO 6,6 C 19,9 C 17,3 km/h
26.04.2009 17:00 19,0 C 42 % 1015,4 hPa 0,0 l/m 4,2 km/h N-NO 5,7 C 19,0 C 18,9 km/h
26.04.2009 18:00 18,3 C 42 % 1015,0 hPa 0,0 l/m 3,3 km/h O 5,1 C 18,3 C 12,5 km/h
26.04.2009 19:00 17,5 C 44 % 1014,9 hPa 0,0 l/m 2,5 km/h O-NO 4,9 C 17,5 C 10,1 km/h
26.04.2009 20:00 16,4 C 47 % 1014,8 hPa 0,0 l/m 1,9 km/h O 5,1 C 16,4 C 10,1 km/h
26.04.2009 21:00 15,4 C 48 % 1014,8 hPa 0,0 l/m 2,2 km/h O-SO 4,5 C 15,4 C 8,0 km/h
26.04.2009 22:00 14,7 C 50 % 1015,1 hPa 0,0 l/m 2,2 km/h S-SO 4,2 C 14,7 C 11,3 km/h
26.04.2009 23:00 13,7 C 51 % 1015,3 hPa 0,0 l/m 2,4 km/h O 3,9 C 13,7 C 13,3 km/h
Min-Datum _ 25.04.09 21.04.09 22.04.09 - 20.04.09 - 21.04.09 25.04.09 20.04.09
_ Min-Zeit 05:45 17:00 21:45 - 00:00 - 17:00 06:15 00:15
Minimum _ 4,1 C 24 % 1012,9 hPa - 0,0 km/h - -1,1 C 4,3 C 0,0 km/h
Max-Datum _ 25.04.09 20.04.09 24.04.09 20.04.09 23.04.09 - 20.04.09 25.04.09 26.04.09
_ Max-Zeit 15:30 07:15 08:30 05:15 03:00 - 13:45 15:30 12:30
Maximum _ 22,6 C 93 % 1023,1 hPa 0,9 l/m 9,9 km/h
W-NW
- 11,0 C 22,4 C 30,6 km/h
S
Durchschnitt _ 14,0 C 57 % 1018,6 hPa #0,9 l/m 2,3 km/h NW 4,9 C 14,0 C 7,7 km/h